createdAt,value
2022-09-21T00:04:09.532Z,68.73
2022-09-21T00:09:30.091Z,68.71
2022-09-21T00:14:50.613Z,68.72
2022-09-21T00:20:11.294Z,68.32
2022-09-21T00:25:31.776Z,68.08
2022-09-21T00:30:52.573Z,68.44
2022-09-21T00:36:17.211Z,68.62
2022-09-21T00:41:37.878Z,68.15
2022-09-21T00:47:08.772Z,68.25
2022-09-21T00:52:33.914Z,68.43
2022-09-21T00:57:59.894Z,68.27
2022-09-21T01:03:20.455Z,68.11
2022-09-21T01:08:42.109Z,68.69
2022-09-21T01:14:28.816Z,68.68
2022-09-21T01:20:20.425Z,68.53
2022-09-21T01:26:01.407Z,68.72
2022-09-21T01:31:27.342Z,69.02
2022-09-21T01:36:49.991Z,69.00
2022-09-21T01:42:13.567Z,69.45
2022-09-21T01:47:39.709Z,69.37
2022-09-21T01:53:10.412Z,69.86
2022-09-21T01:58:54.699Z,69.79
2022-09-21T02:04:15.530Z,69.64
2022-09-21T02:09:37.771Z,69.77
2022-09-21T02:14:58.797Z,69.78
2022-09-21T02:20:36.587Z,70.33
2022-09-21T02:26:14.728Z,69.97
2022-09-21T02:31:54.154Z,69.96
2022-09-21T02:37:21.034Z,70.20
2022-09-21T02:42:45.253Z,69.68
2022-09-21T02:48:14.252Z,69.83
2022-09-21T02:53:37.851Z,69.68
2022-09-21T02:59:03.197Z,69.86
2022-09-21T03:04:24.378Z,69.82
2022-09-21T03:09:45.402Z,69.86
2022-09-21T03:15:06.456Z,70.03
2022-09-21T03:20:27.034Z,69.61
2022-09-21T03:25:48.261Z,70.00
2022-09-21T03:31:09.450Z,69.85
2022-09-21T03:36:30.082Z,69.74
2022-09-21T03:41:50.703Z,70.09
2022-09-21T03:47:11.647Z,70.29
2022-09-21T03:52:32.436Z,70.00
2022-09-21T03:57:53.479Z,70.09
2022-09-21T04:03:14.355Z,69.46
2022-09-21T04:08:35.324Z,69.71
2022-09-21T04:13:59.218Z,70.14
2022-09-21T04:19:20.368Z,70.49
2022-09-21T04:24:41.520Z,70.18
2022-09-21T04:30:02.377Z,70.22
2022-09-21T04:35:23.047Z,70.52
2022-09-21T04:40:43.559Z,70.44
2022-09-21T04:46:16.229Z,70.23
2022-09-21T04:51:37.409Z,70.04
2022-09-21T04:56:58.281Z,70.14
2022-09-21T05:02:18.782Z,70.46
2022-09-21T05:07:39.478Z,75.36
2022-09-21T05:13:00.133Z,71.11
2022-09-21T05:18:20.930Z,70.46
2022-09-21T05:23:41.818Z,70.42
2022-09-21T05:29:02.975Z,70.22
2022-09-21T05:34:53.523Z,70.53
2022-09-21T05:40:14.853Z,70.41
2022-09-21T05:45:41.969Z,70.28
2022-09-21T05:51:18.942Z,70.49
2022-09-21T05:57:02.650Z,70.59
2022-09-21T06:02:35.470Z,70.83
2022-09-21T06:07:56.325Z,70.66
2022-09-21T06:13:17.227Z,70.67
2022-09-21T06:18:42.382Z,70.14
2022-09-21T06:24:03.520Z,70.68
2022-09-21T06:29:24.293Z,71.00
2022-09-21T06:34:44.860Z,70.56
2022-09-21T06:40:06.646Z,70.86
2022-09-21T06:45:28.632Z,71.13
2022-09-21T06:50:49.840Z,70.55
2022-09-21T06:56:11.340Z,70.27
2022-09-21T07:01:32.025Z,70.65
2022-09-21T07:06:52.585Z,70.48
2022-09-21T07:12:13.823Z,70.54
2022-09-21T07:17:36.450Z,70.66
2022-09-21T07:22:57.725Z,70.46
2022-09-21T07:28:19.766Z,71.60
2022-09-21T07:33:41.624Z,71.09
2022-09-21T07:39:03.174Z,71.65
2022-09-21T07:44:24.049Z,71.49
2022-09-21T07:49:45.824Z,70.96
2022-09-21T07:55:07.110Z,71.27
2022-09-21T08:00:33.048Z,71.17
2022-09-21T08:05:53.626Z,70.89
2022-09-21T08:11:16.189Z,70.99
2022-09-21T08:16:38.521Z,70.92
2022-09-21T08:21:59.237Z,71.25
2022-09-21T08:27:20.487Z,71.10
2022-09-21T08:32:50.945Z,71.29
2022-09-21T08:38:12.561Z,71.18
2022-09-21T08:43:41.844Z,71.27
2022-09-21T08:49:10.233Z,71.50
2022-09-21T08:54:37.061Z,70.84
2022-09-21T09:00:00.213Z,70.62
2022-09-21T09:05:41.986Z,71.14
2022-09-21T09:11:24.368Z,70.61
2022-09-21T09:17:06.372Z,70.71
2022-09-21T09:22:53.911Z,71.12
2022-09-21T09:28:33.488Z,70.76
2022-09-21T09:34:00.313Z,70.86
2022-09-21T09:39:21.183Z,70.52
2022-09-21T09:45:03.184Z,70.59
2022-09-21T09:50:33.368Z,70.07
2022-09-21T09:55:56.343Z,70.82
2022-09-21T10:01:38.020Z,70.34
2022-09-21T10:06:58.549Z,70.10
2022-09-21T10:12:25.090Z,70.33
2022-09-21T10:17:48.006Z,69.82
2022-09-21T10:23:13.112Z,70.05
2022-09-21T10:28:34.227Z,69.58
2022-09-21T10:34:14.392Z,69.82
2022-09-21T10:39:35.137Z,69.48
2022-09-21T10:45:17.615Z,69.30
2022-09-21T10:50:50.564Z,69.14
2022-09-21T10:56:17.458Z,69.60
2022-09-21T11:01:45.723Z,69.62
2022-09-21T11:07:25.155Z,70.05
2022-09-21T11:13:10.101Z,70.27
2022-09-21T11:18:39.075Z,69.71
2022-09-21T11:24:18.671Z,69.47
2022-09-21T11:30:07.528Z,68.76
2022-09-21T11:35:40.897Z,68.29
2022-09-21T11:41:23.281Z,68.44
2022-09-21T11:47:05.712Z,68.39
2022-09-21T11:52:47.751Z,68.32
2022-09-21T11:58:28.621Z,68.77
2022-09-21T12:04:16.545Z,68.27
2022-09-21T12:09:56.920Z,67.98
2022-09-21T12:15:33.799Z,68.03
2022-09-21T12:20:57.235Z,68.29
2022-09-21T12:26:23.229Z,68.39
2022-09-21T12:31:56.235Z,68.73
2022-09-21T12:37:40.519Z,67.94
2022-09-21T12:43:07.691Z,67.65
2022-09-21T12:48:38.959Z,67.72
2022-09-21T12:54:08.335Z,67.41
2022-09-21T12:59:32.340Z,67.46
2022-09-21T13:05:17.896Z,67.50
2022-09-21T13:10:43.838Z,67.52
2022-09-21T13:16:07.868Z,67.75
2022-09-21T13:21:31.296Z,67.43
2022-09-21T13:27:08.128Z,67.45
2022-09-21T13:32:52.231Z,67.18
2022-09-21T13:38:23.389Z,66.88
2022-09-21T13:44:06.178Z,66.91
2022-09-21T13:49:32.060Z,66.46
2022-09-21T13:55:01.890Z,67.25
2022-09-21T14:00:22.377Z,67.22
2022-09-21T14:05:47.812Z,67.52
2022-09-21T14:11:15.623Z,67.00
2022-09-21T14:16:41.822Z,67.24
2022-09-21T14:22:06.254Z,66.95
2022-09-21T14:27:48.264Z,66.77
2022-09-21T14:33:26.233Z,66.53
2022-09-21T14:38:55.366Z,66.39
2022-09-21T14:44:29.632Z,66.67
2022-09-21T14:50:08.114Z,66.50
2022-09-21T14:55:52.242Z,66.88
2022-09-21T15:01:40.821Z,67.21
2022-09-21T15:07:35.357Z,67.52
2022-09-21T15:13:05.267Z,67.66
2022-09-21T15:18:26.227Z,67.02
2022-09-21T15:23:47.156Z,66.81
2022-09-21T15:29:10.279Z,66.81
2022-09-21T15:34:32.151Z,66.65
2022-09-21T15:40:05.130Z,66.79
2022-09-21T15:51:33.805Z,66.80
2022-09-21T15:56:55.745Z,66.64
2022-09-21T16:02:22.263Z,67.22
2022-09-21T16:07:46.062Z,66.84
2022-09-21T16:13:42.864Z,66.77
2022-09-21T16:19:04.671Z,67.33
2022-09-21T16:24:27.181Z,67.55
2022-09-21T16:29:50.311Z,68.69
2022-09-21T16:35:29.465Z,67.70
2022-09-21T16:40:54.074Z,68.42
2022-09-21T16:46:15.102Z,68.07
2022-09-21T16:51:36.332Z,68.43
2022-09-21T16:57:00.080Z,67.53
2022-09-21T17:02:21.050Z,67.68
2022-09-21T17:08:04.700Z,68.44
2022-09-21T17:13:28.266Z,67.56
2022-09-21T17:18:49.901Z,67.30
2022-09-21T17:24:13.939Z,68.32
2022-09-21T17:29:49.439Z,68.21
2022-09-21T17:35:14.573Z,67.63
2022-09-21T17:40:36.504Z,67.36
2022-09-21T17:46:05.177Z,70.73
2022-09-21T17:51:45.061Z,67.75
2022-09-21T17:57:33.545Z,67.49
2022-09-21T18:02:55.083Z,67.88
2022-09-21T18:08:15.943Z,67.80
2022-09-21T18:14:05.707Z,67.77
2022-09-21T18:19:42.571Z,68.03
2022-09-21T18:25:14.578Z,67.60
2022-09-21T18:30:41.174Z,69.17
2022-09-21T18:36:25.414Z,68.09
2022-09-21T18:42:01.438Z,68.05
2022-09-21T18:47:40.603Z,67.51
2022-09-21T18:53:13.114Z,67.12
2022-09-21T18:58:34.796Z,66.73
2022-09-21T19:03:55.894Z,66.99
2022-09-21T19:09:30.404Z,67.82
2022-09-21T19:15:12.445Z,67.38
2022-09-21T19:20:49.906Z,67.36
2022-09-21T19:26:21.647Z,67.15
2022-09-21T19:31:44.473Z,67.34
2022-09-21T19:37:07.914Z,67.59
2022-09-21T19:42:44.177Z,67.41
2022-09-21T19:48:13.545Z,67.05
2022-09-21T19:53:52.947Z,66.99
2022-09-21T19:59:34.855Z,67.07
2022-09-21T20:04:58.422Z,67.78
2022-09-21T20:10:27.164Z,67.77
2022-09-21T20:16:03.800Z,67.30
2022-09-21T20:21:37.820Z,67.44
2022-09-21T20:26:59.096Z,67.48
2022-09-21T20:32:22.411Z,67.39
2022-09-21T20:37:44.357Z,66.93
2022-09-21T20:43:05.327Z,66.98
2022-09-21T20:48:30.114Z,67.05
2022-09-21T20:53:53.223Z,66.91
2022-09-21T20:59:14.527Z,66.58
2022-09-21T21:04:37.051Z,67.02
2022-09-21T21:09:58.983Z,66.91
2022-09-21T21:15:20.568Z,66.97
2022-09-21T21:20:41.305Z,67.18
2022-09-21T21:26:05.137Z,67.02
2022-09-21T21:31:25.876Z,66.62
2022-09-21T21:36:46.564Z,66.55
2022-09-21T21:42:07.426Z,66.60
2022-09-21T21:47:39.288Z,66.83
2022-09-21T21:53:01.464Z,67.10
2022-09-21T21:58:22.523Z,67.24
2022-09-21T22:03:43.365Z,67.26
2022-09-21T22:09:06.565Z,67.56
2022-09-21T22:14:28.354Z,67.35
2022-09-21T22:19:49.704Z,67.54
2022-09-21T22:25:11.037Z,67.28
2022-09-21T22:30:32.255Z,67.60
2022-09-21T22:35:52.847Z,67.62
2022-09-21T22:41:19.777Z,68.14
2022-09-21T22:46:42.051Z,67.67
2022-09-21T22:52:02.791Z,67.97
2022-09-21T22:57:23.794Z,68.04
2022-09-21T23:02:44.939Z,68.24
2022-09-21T23:08:05.884Z,68.45
2022-09-21T23:13:26.602Z,68.00
2022-09-21T23:18:49.132Z,68.15
2022-09-21T23:24:10.198Z,68.81
2022-09-21T23:29:31.361Z,68.45
2022-09-21T23:34:52.624Z,68.70
2022-09-21T23:40:13.568Z,68.63
2022-09-21T23:45:35.164Z,69.16
2022-09-21T23:50:56.805Z,68.84
2022-09-21T23:56:23.769Z,68.75
